Pick'em Leagues: THE BIG SHOW CASUAL BEST OF THE REST Single Event PvP: FANTASY POOLS Betting Leagues: THE BIG SHOW BEST OF THE REST
 

MMA Playground Members List

 
: :Quick Find : :
 ALL   A   B   C   D   E   F   G   H   I   J   K   L   M   N   O   P   Q   R   S   T   U   V   W   X   Y   Z 

There are a total of 79430 members
75554 members match your search criteria (excluding banned members)
There are a total of 1512 pages

[First Page]       << Prev    Page:  1170   1171   1172   1173   1174   1175   1176   1177   1178   1179  [1180]  1181   1182   1183   1184   1185   1186   1187   1188   1189   1190     Next >>       [Last Page]   
Login
Total Posts
Joined
Season
Wins

Season
Losses

Season
Rank

Wealth
Rank

BankRoll
Career
Wins

Career
Losses

deenerr 0 12/24/2007 0 0 0 0 $1000 6 3
JoSo 0 12/24/2007 0 0 0 0 $1000 0 0
alablangy 6 12/24/2007 0 0 0 0 $1000 0 0
marauder 0 12/24/2007 0 0 0 0 $1000 26 21
butterflydragoon 0 12/24/2007 0 0 0 0 $1000 52 39
anomoly 38 12/24/2007 0 0 0 0 $1000 359 267
scotte8269 0 12/24/2007 0 0 0 0 $1000 57 38
bjjallstar 0 12/24/2007 0 0 0 0 $1000 72 62
Amphibious1 0 12/24/2007 0 0 0 0 $1000 0 0
Hassan 7 12/24/2007 0 0 0 0 $1000 4 5
crazyeddie 0 12/24/2007 0 0 0 0 $1000 59 36
pimpin21 0 12/24/2007 0 0 0 0 $1000 3 3
Dragoon91786 0 12/24/2007 0 0 0 0 $1000 0 0
jwillmoney 0 12/24/2007 0 0 0 0 $1000 450 303
kram86 0 12/24/2007 0 0 0 0 $1000 19 17
Everlast909 0 12/23/2007 0 0 0 0 $1000 4 5
pitbul 0 12/23/2007 0 0 0 0 $1000 0 0
centralrams 0 12/23/2007 0 0 0 0 $1000 0 0
poundcommapound 0 12/23/2007 0 0 0 0 $1000 18 22
Purge 296 12/23/2007 0 0 0 0 $1000 299 171
dewamp88 0 12/23/2007 0 0 0 0 $1000 10 8
claudegusto 0 12/23/2007 0 0 0 0 $1000 7 2
lopezthemassacare 0 12/23/2007 0 0 0 0 $1000 6 3
AF808fighter 4 12/23/2007 0 0 0 0 $1000 0 0
slate 0 12/23/2007 0 0 0 0 $1000 0 0
mrlibby 0 12/23/2007 0 0 0 0 $1000 22 9
temple03 0 12/23/2007 0 0 0 0 $1000 11 8
Shidrax 3 12/23/2007 0 0 0 0 $1000 258 191
mma_cop 0 12/22/2007 0 0 0 0 $1000 5 10
HMA123 162 12/22/2007 0 0 0 0 $1000 60 44
trueuechiryu 0 12/22/2007 0 0 0 0 $1000 0 0
jaceman18169 0 12/22/2007 0 0 0 0 $1000 1 1
john1son 0 12/22/2007 0 0 0 0 $1000 6 4
jimclaudesalgado 0 12/22/2007 0 0 0 0 $1000 0 1
DBest 26 12/22/2007 0 0 0 0 $1000 555 299
wrestler23 0 12/22/2007 0 0 0 0 $1000 0 0
Spence 0 12/22/2007 0 0 0 0 $1000 6 3
buram 8 12/22/2007 0 0 0 0 $1000 49 29
anndent 0 12/22/2007 0 0 0 0 $1000 7 11
stevenj 0 12/22/2007 0 0 0 0 $1000 28 20
ippon 9 12/22/2007 0 0 0 0 $1000 78 54
Lutari 0 12/22/2007 0 0 0 0 $1000 0 0
springer18140 0 12/22/2007 0 0 0 0 $1000 240 152
fightpimp 0 12/22/2007 0 0 0 0 $1000 0 0
P3T3 0 12/22/2007 0 0 0 0 $1000 4 5
AngryBob 0 12/22/2007 0 0 0 0 $1000 7 5
PrimalMike 0 12/22/2007 0 0 0 0 $1000 6 3
lnicknizl 0 12/21/2007 0 0 0 0 $1000 0 0
ARodriguez 0 12/21/2007 0 0 0 0 $1000 1 0
totfc 0 12/21/2007 0 0 0 0 $1000 381 259
[First Page]       << Prev    Page:  1170   1171   1172   1173   1174   1175   1176   1177   1178   1179  [1180]  1181   1182   1183   1184   1185   1186   1187   1188   1189   1190     Next >>       [Last Page]